Time;durP1;ratioP1;P1;durP2;ratioP2;P2;SDS_P1;SDS_P2;PMS_P1;PMS_P2;Temp;Humidity;BMP_temperature;BMP_pressure;BME280_temperature;BME280_humidity;BME280_pressure;Samples;Min_cycle;Max_cycle;Signal;HPM_P1;HPM_P2
2021/04/29 00:02:19;;;;;;;2.42;1.55;;;17.80;62.50;;;;;;6131508;29;20020;-80
2021/04/29 00:05:22;;;;;;;3.45;1.42;;;17.80;62.80;;;;;;6114198;29;20028;-80
2021/04/29 00:08:24;;;;;;;2.25;1.40;;;17.80;62.80;;;;;;6092822;29;20427;-79
2021/04/29 00:11:25;;;;;;;3.08;1.98;;;17.70;62.70;;;;;;6131298;29;20043;-82
2021/04/29 00:14:27;;;;;;;3.45;1.80;;;17.70;62.90;;;;;;6130583;29;20090;-80
2021/04/29 00:17:28;;;;;;;2.03;1.65;;;17.70;63.20;;;;;;6131785;29;20028;-81
2021/04/29 00:20:29;;;;;;;2.83;1.92;;;17.50;63.60;;;;;;6114830;29;20046;-81
2021/04/29 00:23:31;;;;;;;1.73;1.40;;;17.40;64.00;;;;;;6116731;29;20035;-80
2021/04/29 00:26:33;;;;;;;3.53;1.67;;;17.40;64.90;;;;;;6114390;29;20035;-80
2021/04/29 00:29:34;;;;;;;2.20;1.45;;;17.40;64.70;;;;;;6114067;29;20048;-80
2021/04/29 00:32:36;;;;;;;4.43;1.88;;;17.40;64.70;;;;;;6114181;29;20031;-79
2021/04/29 00:35:37;;;;;;;1.65;1.40;;;17.40;64.70;;;;;;6114525;29;20051;-80
2021/04/29 00:38:38;;;;;;;1.95;1.58;;;17.40;64.70;;;;;;6115035;29;20028;-80
2021/04/29 00:41:40;;;;;;;5.10;1.98;;;17.50;64.80;;;;;;6131607;29;20066;-80
2021/04/29 00:44:41;;;;;;;2.63;2.00;;;17.50;65.00;;;;;;6121218;29;20046;-81
2021/04/29 00:47:42;;;;;;;3.28;2.10;;;17.50;65.10;;;;;;6139502;29;20047;-82
2021/04/29 00:50:44;;;;;;;2.92;2.20;;;17.50;65.40;;;;;;6116681;29;20082;-81
2021/04/29 00:53:46;;;;;;;4.65;2.50;;;17.50;65.70;;;;;;6132758;29;20036;-81
2021/04/29 00:56:47;;;;;;;2.83;2.25;;;17.50;65.90;;;;;;6114164;29;20039;-82
2021/04/29 00:59:49;;;;;;;4.80;2.28;;;17.50;66.00;;;;;;6113371;29;20123;-81
2021/04/29 01:03:21;;;;;;;4.90;2.30;;;17.50;66.00;;;;;;6117909;29;20027;-81
2021/04/29 01:06:41;;;;;;;3.20;2.00;;;17.50;66.10;;;;;;6130719;29;20052;-81
2021/04/29 01:09:52;;;;;;;6.57;2.47;;;17.50;66.10;;;;;;6114466;29;20035;-81
2021/04/29 01:13:13;;;;;;;4.65;2.20;;;17.60;65.90;;;;;;6114592;29;20055;-81
2021/04/29 01:16:17;;;;;;;4.18;2.47;;;17.60;66.10;;;;;;6133904;29;20028;-81
2021/04/29 01:19:21;;;;;;;5.80;2.40;;;17.60;66.20;;;;;;6142176;29;20047;-80
2021/04/29 01:22:22;;;;;;;6.28;2.97;;;17.60;66.40;;;;;;6122100;29;20027;-81
2021/04/29 01:25:28;;;;;;;4.53;2.55;;;17.60;66.50;;;;;;6113380;29;20402;-80
2021/04/29 01:28:30;;;;;;;3.60;2.47;;;17.60;66.80;;;;;;6124107;29;20058;-82
2021/04/29 01:31:37;;;;;;;5.32;3.08;;;17.50;66.90;;;;;;6130198;29;20455;-81
2021/04/29 01:34:39;;;;;;;4.57;2.78;;;17.50;67.00;;;;;;6099086;29;20038;-82
2021/04/29 01:37:41;;;;;;;4.85;3.08;;;17.50;67.00;;;;;;6117050;29;20038;-80
2021/04/29 01:40:44;;;;;;;3.90;2.60;;;17.50;67.10;;;;;;6130379;29;20031;-81
2021/04/29 01:43:45;;;;;;;6.18;3.35;;;17.50;67.20;;;;;;6116301;29;20232;-80
2021/04/29 01:46:47;;;;;;;6.05;3.80;;;17.40;67.20;;;;;;6132742;29;20031;-81
2021/04/29 01:49:50;;;;;;;6.32;3.70;;;17.40;67.30;;;;;;6139302;29;20028;-81
2021/04/29 01:52:52;;;;;;;6.88;3.33;;;17.40;67.30;;;;;;6142606;29;20027;-79
2021/04/29 01:55:55;;;;;;;6.63;3.83;;;17.40;67.20;;;;;;6123286;29;20518;-81
2021/04/29 01:58:56;;;;;;;10.75;3.70;;;17.40;67.20;;;;;;6135427;29;20063;-80
2021/04/29 02:01:57;;;;;;;6.30;3.63;;;17.40;67.30;;;;;;6130665;29;20047;-80
2021/04/29 02:04:58;;;;;;;6.68;3.55;;;17.40;67.30;;;;;;6114218;29;20039;-79
2021/04/29 02:08:00;;;;;;;7.90;4.20;;;17.40;67.30;;;;;;6115345;29;20170;-80
2021/04/29 02:11:04;;;;;;;8.48;4.38;;;17.40;67.30;;;;;;6130380;29;20039;-80
2021/04/29 02:14:07;;;;;;;7.35;4.32;;;17.40;67.50;;;;;;6132838;29;20058;-80
2021/04/29 02:17:16;;;;;;;8.10;4.30;;;17.40;67.50;;;;;;6127148;29;20039;-81
2021/04/29 02:20:22;;;;;;;7.38;4.18;;;17.40;67.40;;;;;;6116680;29;20035;-81
2021/04/29 02:23:24;;;;;;;6.95;3.92;;;17.50;67.30;;;;;;6133308;29;20115;-81
2021/04/29 02:26:34;;;;;;;5.80;3.53;;;17.60;67.30;;;;;;6132551;29;20036;-81
2021/04/29 02:29:36;;;;;;;5.75;3.50;;;17.60;67.10;;;;;;6121054;29;20036;-81
2021/04/29 02:37:00;;;;;;;;;;;17.50;67.10;;;;;;6136344;29;20031;-81
2021/04/29 02:40:01;;;;;;;4.65;3.30;;;17.50;67.10;;;;;;6117628;29;20227;-81
2021/04/29 02:43:02;;;;;;;8.68;3.53;;;17.60;67.00;;;;;;6117815;29;20054;-81
2021/04/29 02:46:04;;;;;;;10.80;3.75;;;17.60;67.00;;;;;;6133271;29;20126;-81
2021/04/29 02:49:07;;;;;;;5.50;3.30;;;17.50;67.00;;;;;;6117017;29;20115;-81
2021/04/29 02:52:11;;;;;;;4.80;3.45;;;17.60;67.10;;;;;;6105960;29;20055;-82
2021/04/29 02:55:13;;;;;;;4.25;2.50;;;17.60;67.10;;;;;;6133429;29;20031;-81
2021/04/29 02:58:16;;;;;;;3.50;2.50;;;17.60;67.00;;;;;;6132069;29;20129;-81
2021/04/29 03:01:24;;;;;;;2.60;2.08;;;17.60;66.80;;;;;;6116875;29;20063;-81
2021/04/29 03:04:25;;;;;;;4.28;2.38;;;17.60;66.80;;;;;;6109634;29;20404;-81
2021/04/29 03:07:26;;;;;;;4.65;2.20;;;17.60;66.90;;;;;;6131860;29;20139;-83
2021/04/29 03:10:28;;;;;;;2.95;2.22;;;17.60;67.00;;;;;;6115887;29;20119;-80
2021/04/29 03:13:29;;;;;;;5.07;3.00;;;17.50;66.90;;;;;;6117799;29;20418;-80
2021/04/29 03:16:30;;;;;;;5.88;2.28;;;17.60;67.10;;;;;;6116124;29;20027;-82
2021/04/29 03:19:31;;;;;;;4.28;2.67;;;17.50;67.10;;;;;;6131295;29;20035;-82
2021/04/29 03:22:39;;;;;;;3.30;2.28;;;17.50;67.20;;;;;;6115791;29;20491;-81
2021/04/29 03:25:40;;;;;;;4.28;2.60;;;17.50;67.30;;;;;;6131522;29;20027;-81
2021/04/29 03:28:41;;;;;;;3.92;2.63;;;17.50;67.30;;;;;;6115722;29;20099;-82
2021/04/29 03:31:42;;;;;;;5.10;3.15;;;17.50;67.30;;;;;;6117207;29;20469;-82
2021/04/29 03:34:43;;;;;;;8.30;3.30;;;17.40;67.50;;;;;;6132408;29;20055;-82
2021/04/29 03:37:45;;;;;;;8.77;4.88;;;17.40;67.70;;;;;;6132025;29;20023;-81
2021/04/29 03:40:46;;;;;;;8.38;5.68;;;17.40;67.90;;;;;;6115178;29;20434;-83
2021/04/29 03:43:47;;;;;;;10.88;6.88;;;17.30;67.90;;;;;;6094513;29;20040;-83
2021/04/29 03:46:48;;;;;;;6.85;4.30;;;17.30;68.10;;;;;;6115376;29;20107;-82
2021/04/29 03:49:49;;;;;;;4.03;2.85;;;17.30;68.30;;;;;;6114605;29;20027;-82
2021/04/29 03:52:50;;;;;;;12.95;3.95;;;17.30;68.30;;;;;;6130736;29;20059;-81
2021/04/29 03:55:51;;;;;;;6.03;3.42;;;17.30;68.30;;;;;;6130256;29;20074;-81
2021/04/29 03:58:52;;;;;;;5.07;2.95;;;17.30;68.40;;;;;;6131507;29;20043;-81
2021/04/29 04:01:53;;;;;;;4.35;2.88;;;17.30;68.40;;;;;;6130790;29;20058;-81
2021/04/29 04:04:55;;;;;;;4.97;2.97;;;17.30;68.30;;;;;;6131243;29;20168;-81
2021/04/29 04:07:56;;;;;;;4.70;3.28;;;17.40;68.30;;;;;;6114103;29;20048;-82
2021/04/29 04:10:57;;;;;;;5.45;3.55;;;17.30;68.20;;;;;;6114429;29;20043;-80
2021/04/29 04:13:58;;;;;;;11.00;3.70;;;17.30;68.20;;;;;;6077026;29;20028;-80
2021/04/29 04:16:59;;;;;;;10.93;4.38;;;17.40;68.30;;;;;;6114256;29;20315;-80
2021/04/29 04:20:00;;;;;;;6.25;3.88;;;17.30;68.20;;;;;;6131027;29;20073;-82
2021/04/29 04:23:01;;;;;;;5.13;3.40;;;17.30;68.30;;;;;;6129701;29;20043;-81
2021/04/29 04:26:03;;;;;;;11.40;4.03;;;17.30;68.30;;;;;;6131100;29;20233;-82
2021/04/29 04:29:04;;;;;;;7.07;4.57;;;17.30;68.30;;;;;;6132300;29;20050;-81
2021/04/29 04:32:39;;;;;;;7.38;4.85;;;17.30;68.30;;;;;;6115068;29;20079;-81
2021/04/29 04:35:41;;;;;;;7.07;4.25;;;17.30;68.40;;;;;;6133569;29;20043;-80
2021/04/29 04:38:42;;;;;;;6.53;4.35;;;17.30;68.30;;;;;;6130533;29;20028;-81
2021/04/29 04:41:43;;;;;;;7.90;4.05;;;17.30;68.30;;;;;;6114347;29;20363;-81
2021/04/29 04:44:45;;;;;;;7.82;4.50;;;17.30;68.30;;;;;;6131346;29;20557;-81
2021/04/29 04:47:47;;;;;;;5.47;3.85;;;17.20;68.30;;;;;;6099637;29;20043;-81
2021/04/29 04:50:48;;;;;;;7.55;4.30;;;17.20;68.40;;;;;;6113859;29;20090;-80
2021/04/29 04:53:50;;;;;;;11.57;6.05;;;17.30;68.50;;;;;;6113047;29;20046;-80
2021/04/29 04:56:51;;;;;;;12.60;8.13;;;17.30;68.60;;;;;;6113763;29;20031;-80
2021/04/29 04:59:52;;;;;;;11.38;7.72;;;17.30;68.50;;;;;;6113732;29;20031;-81
2021/04/29 05:02:55;;;;;;;13.27;7.15;;;17.30;68.50;;;;;;6097701;29;20047;-81
2021/04/29 05:05:56;;;;;;;11.25;6.03;;;17.40;68.50;;;;;;6115460;29;20059;-81
2021/04/29 05:08:57;;;;;;;8.15;5.50;;;17.30;68.40;;;;;;6134650;29;20031;-81
2021/04/29 05:12:00;;;;;;;8.43;4.63;;;17.40;68.50;;;;;;6136866;29;20370;-80
2021/04/29 05:15:04;;;;;;;7.68;3.22;;;17.40;68.50;;;;;;6114956;29;20036;-80
2021/04/29 05:18:05;;;;;;;9.18;3.60;;;17.40;68.40;;;;;;6113120;29;20412;-80
2021/04/29 05:21:06;;;;;;;16.98;3.70;;;17.40;68.30;;;;;;6129955;29;20055;-80
2021/04/29 05:24:07;;;;;;;9.40;3.05;;;17.40;68.20;;;;;;6113741;29;20040;-81
2021/04/29 05:27:09;;;;;;;5.50;2.63;;;17.40;68.10;;;;;;6130265;29;20039;-81
2021/04/29 05:30:11;;;;;;;4.90;2.67;;;17.40;67.90;;;;;;6110634;29;20035;-81
2021/04/29 05:33:12;;;;;;;4.03;2.58;;;17.40;67.70;;;;;;6109787;29;20028;-83
2021/04/29 05:36:13;;;;;;;5.63;2.60;;;17.50;67.60;;;;;;6121042;29;20031;-80
2021/04/29 05:39:15;;;;;;;3.30;2.10;;;17.50;67.40;;;;;;6112902;29;20467;-81
2021/04/29 05:42:16;;;;;;;2.95;2.17;;;17.50;67.10;;;;;;6111852;29;20044;-82
2021/04/29 05:45:17;;;;;;;4.82;2.50;;;17.50;66.80;;;;;;6098594;29;20367;-82
2021/04/29 05:48:18;;;;;;;5.65;1.80;;;17.50;66.70;;;;;;6139500;29;20031;-85
2021/04/29 05:51:19;;;;;;;8.93;2.67;;;17.50;66.30;;;;;;6119139;29;20447;-85
2021/04/29 05:54:21;;;;;;;6.97;2.17;;;17.40;66.20;;;;;;6101994;29;20106;-83
2021/04/29 05:57:22;;;;;;;4.03;1.70;;;17.40;66.20;;;;;;6117543;29;20053;-85
2021/04/29 06:00:24;;;;;;;2.53;1.63;;;17.50;66.20;;;;;;6118141;29;20035;-87
2021/04/29 06:03:25;;;;;;;2.63;1.52;;;17.50;65.90;;;;;;6134165;29;20474;-86
2021/04/29 06:06:27;;;;;;;4.50;1.60;;;17.50;65.70;;;;;;6134811;29;20486;-86
2021/04/29 06:09:28;;;;;;;2.63;1.50;;;17.50;65.40;;;;;;6133812;29;20035;-85
2021/04/29 06:12:29;;;;;;;2.35;1.27;;;17.40;65.00;;;;;;6134328;29;20349;-84
2021/04/29 06:15:31;;;;;;;4.68;1.00;;;17.50;64.70;;;;;;6135618;29;20038;-86
2021/04/29 06:18:32;;;;;;;1.55;0.98;;;17.50;64.40;;;;;;6128759;29;20131;-84
2021/04/29 06:21:34;;;;;;;4.25;1.00;;;17.40;63.70;;;;;;6118676;29;20038;-84
2021/04/29 06:24:35;;;;;;;1.65;0.95;;;17.40;63.30;;;;;;6122685;29;20043;-83
2021/04/29 06:27:37;;;;;;;5.82;1.10;;;17.40;63.10;;;;;;6121051;29;20086;-83
2021/04/29 06:30:41;;;;;;;2.90;1.10;;;17.40;63.00;;;;;;6138218;29;20028;-81
2021/04/29 06:33:46;;;;;;;1.65;0.98;;;17.30;63.00;;;;;;6120908;29;20032;-84
2021/04/29 06:37:09;;;;;;;2.35;1.08;;;17.40;63.00;;;;;;6117218;29;20039;-85
2021/04/29 06:40:15;;;;;;;3.67;1.63;;;17.30;62.80;;;;;;6127788;29;20699;-82
2021/04/29 06:43:16;;;;;;;1.83;1.20;;;17.30;62.80;;;;;;6106546;29;20046;-83
2021/04/29 06:46:17;;;;;;;4.15;1.23;;;17.30;62.70;;;;;;6136557;29;20035;-83
2021/04/29 06:49:18;;;;;;;5.15;1.60;;;17.30;62.80;;;;;;6133867;29;20356;-83
2021/04/29 06:52:20;;;;;;;3.13;1.10;;;17.30;63.00;;;;;;6120657;29;20090;-83
2021/04/29 06:55:23;;;;;;;9.38;1.38;;;17.30;63.40;;;;;;6118353;29;20451;-84
2021/04/29 06:58:25;;;;;;;55.80;5.28;;;17.30;63.60;;;;;;6126177;29;20063;-83
2021/04/29 07:01:26;;;;;;;3.95;1.17;;;17.20;63.70;;;;;;6109156;29;20062;-83
2021/04/29 07:04:27;;;;;;;7.18;1.88;;;17.20;63.90;;;;;;6110361;29;20404;-83
2021/04/29 07:07:28;;;;;;;50.95;5.65;;;17.10;64.20;;;;;;6128710;29;20112;-84
2021/04/29 07:10:30;;;;;;;8.02;1.77;;;17.10;64.60;;;;;;6113236;29;20036;-83
2021/04/29 07:13:31;;;;;;;15.10;2.30;;;17.10;64.90;;;;;;6125677;29;20035;-84
2021/04/29 07:16:32;;;;;;;3.17;1.20;;;17.00;65.10;;;;;;6106916;29;20028;-84
2021/04/29 07:19:35;;;;;;;4.15;1.83;;;17.00;65.50;;;;;;6115259;29;20020;-84
2021/04/29 07:22:39;;;;;;;47.65;4.32;;;17.00;65.70;;;;;;6131525;29;20031;-85
2021/04/29 07:25:40;;;;;;;25.13;2.85;;;17.00;65.90;;;;;;6128246;29;20046;-84
2021/04/29 07:28:42;;;;;;;1.70;1.23;;;17.10;66.10;;;;;;6146550;29;20031;-86
2021/04/29 07:31:45;;;;;;;2.38;1.35;;;17.00;66.20;;;;;;6144236;29;20055;-85
2021/04/29 07:34:46;;;;;;;2.38;1.20;;;16.90;66.30;;;;;;6127455;29;20036;-87
2021/04/29 07:37:47;;;;;;;4.70;1.25;;;16.90;66.40;;;;;;6127215;29;20416;-84
2021/04/29 07:40:48;;;;;;;2.72;1.40;;;17.00;66.50;;;;;;6125095;29;20023;-84
2021/04/29 07:43:50;;;;;;;3.78;1.00;;;17.00;66.50;;;;;;6120759;29;20044;-84
2021/04/29 07:46:51;;;;;;;1.55;1.00;;;17.00;66.50;;;;;;6109815;29;20032;-84
2021/04/29 07:49:52;;;;;;;3.05;1.25;;;16.90;66.40;;;;;;6119683;29;20040;-84
2021/04/29 07:52:54;;;;;;;5.38;1.40;;;16.90;66.40;;;;;;6110023;29;20087;-84
2021/04/29 07:55:55;;;;;;;12.27;2.75;;;16.90;66.50;;;;;;6112886;29;20043;-83
2021/04/29 07:58:57;;;;;;;5.30;2.13;;;16.90;66.60;;;;;;6100076;29;20093;-83
2021/04/29 08:01:59;;;;;;;6.43;1.75;;;16.90;66.60;;;;;;6088410;29;20032;-85
2021/04/29 08:05:01;;;;;;;2.67;1.65;;;17.00;66.70;;;;;;6101641;29;20052;-86
2021/04/29 08:08:02;;;;;;;2.33;1.30;;;17.00;66.80;;;;;;6085316;29;20029;-85
2021/04/29 08:11:04;;;;;;;34.92;2.75;;;17.10;66.70;;;;;;6086525;29;20044;-85
2021/04/29 08:14:06;;;;;;;4.07;1.48;;;17.10;66.50;;;;;;6069956;29;20055;-85
2021/04/29 08:17:08;;;;;;;6.93;2.10;;;17.20;66.30;;;;;;6085694;29;20108;-84
2021/04/29 08:20:10;;;;;;;179.57;13.50;;;17.20;66.10;;;;;;6099494;29;20342;-83
2021/04/29 08:23:12;;;;;;;18.30;2.92;;;17.20;66.30;;;;;;6068186;29;20080;-83
2021/04/29 08:26:13;;;;;;;8.43;1.50;;;17.30;66.20;;;;;;6078499;29;20044;-82
2021/04/29 08:29:14;;;;;;;15.10;1.65;;;17.40;66.10;;;;;;6080857;29;20036;-81
2021/04/29 08:32:18;;;;;;;4.45;1.48;;;17.50;65.90;;;;;;6078454;29;20142;-83
2021/04/29 08:35:20;;;;;;;3.63;1.50;;;17.50;65.50;;;;;;6081501;29;20028;-79
2021/04/29 08:38:21;;;;;;;107.40;7.95;;;17.50;65.40;;;;;;6081743;29;20016;-82
2021/04/29 08:41:22;;;;;;;25.60;2.92;;;17.50;65.30;;;;;;6080899;29;20036;-82
2021/04/29 08:44:24;;;;;;;31.40;3.30;;;17.40;65.30;;;;;;6082191;29;20460;-81
2021/04/29 08:47:25;;;;;;;65.97;5.53;;;17.40;65.50;;;;;;6067217;29;20035;-83
2021/04/29 08:50:27;;;;;;;4.50;1.80;;;17.40;65.70;;;;;;6114215;29;20036;-81
2021/04/29 08:53:29;;;;;;;71.07;5.72;;;17.40;65.70;;;;;;6084492;29;20028;-81
2021/04/29 08:56:30;;;;;;;6.20;1.77;;;17.40;65.80;;;;;;6081704;29;20024;-82
2021/04/29 08:59:31;;;;;;;13.00;4.20;;;17.40;65.80;;;;;;6110784;29;20036;-82
2021/04/29 09:02:37;;;;;;;15.10;5.97;;;17.50;65.80;;;;;;6097263;29;20099;-81
2021/04/29 09:05:38;;;;;;;13.75;2.72;;;17.50;65.90;;;;;;6113226;29;20054;-83
2021/04/29 09:08:42;;;;;;;9.70;2.25;;;17.60;66.00;;;;;;6141624;29;20451;-82
2021/04/29 09:11:54;;;;;;;27.45;4.10;;;17.60;65.90;;;;;;6132140;29;20463;-82
2021/04/29 09:14:57;;;;;;;5.43;2.28;;;17.60;65.90;;;;;;6122177;29;20034;-81
2021/04/29 09:18:04;;;;;;;23.83;10.85;;;17.70;65.80;;;;;;6145296;29;20071;-81
2021/04/29 09:21:14;;;;;;;21.05;9.38;;;17.80;65.90;;;;;;6129687;29;20037;-80
2021/04/29 09:24:16;;;;;;;17.67;6.35;;;17.80;65.80;;;;;;6116666;29;20039;-81
2021/04/29 09:27:23;;;;;;;14.38;3.17;;;17.80;65.60;;;;;;6122431;29;20122;-82
2021/04/29 09:30:26;;;;;;;8.73;2.53;;;17.80;65.60;;;;;;6117000;29;20038;-82
2021/04/29 09:33:34;;;;;;;10.15;2.80;;;17.80;65.50;;;;;;6134395;29;20035;-81
2021/04/29 09:36:44;;;;;;;4.18;2.50;;;17.80;65.50;;;;;;6116980;29;20031;-83
2021/04/29 09:39:45;;;;;;;45.33;6.78;;;17.70;65.70;;;;;;6100257;29;20032;-83
2021/04/29 09:42:49;;;;;;;5.57;3.00;;;17.60;65.90;;;;;;6130739;29;20423;-83
2021/04/29 09:46:02;;;;;;;14.45;4.82;;;17.60;66.30;;;;;;6113718;29;20443;-83
2021/04/29 09:49:28;;;;;;;6.78;3.03;;;17.50;66.50;;;;;;6094595;29;20051;-84
2021/04/29 09:52:29;;;;;;;2.75;1.70;;;17.50;66.80;;;;;;6106327;29;20052;-83
2021/04/29 09:55:33;;;;;;;15.30;4.55;;;17.50;67.60;;;;;;6130239;29;20066;-84
2021/04/29 09:58:35;;;;;;;22.90;5.90;;;17.50;66.90;;;;;;6091582;29;20072;-82
2021/04/29 10:01:37;;;;;;;7.93;3.35;;;17.40;67.10;;;;;;6090502;29;20367;-82
2021/04/29 10:04:39;;;;;;;27.75;7.75;;;17.40;67.20;;;;;;6080859;29;20428;-82
2021/04/29 10:07:40;;;;;;;21.25;6.15;;;17.40;67.40;;;;;;6076103;29;20030;-82
2021/04/29 10:10:44;;;;;;;13.93;4.68;;;17.30;67.30;;;;;;6094924;29;20356;-81
2021/04/29 10:13:46;;;;;;;13.98;5.88;;;17.30;67.60;;;;;;6082351;29;20021;-83
2021/04/29 10:16:47;;;;;;;16.25;5.70;;;17.30;67.60;;;;;;6085548;29;20123;-83
2021/04/29 10:19:58;;;;;;;49.50;21.52;;;17.30;67.60;;;;;;6086721;29;20113;-83
2021/04/29 10:23:01;;;;;;;42.05;18.23;;;17.30;67.60;;;;;;6081907;29;20028;-83
2021/04/29 10:26:04;;;;;;;59.38;24.63;;;17.30;67.40;;;;;;6081773;29;20028;-82
2021/04/29 10:29:07;;;;;;;25.30;10.18;;;17.30;67.40;;;;;;6092097;29;20158;-83
2021/04/29 10:32:14;;;;;;;20.60;9.20;;;17.40;67.60;;;;;;6089323;29;20064;-82
2021/04/29 10:35:21;;;;;;;13.60;7.15;;;17.40;67.60;;;;;;6095065;29;20080;-83
2021/04/29 10:38:44;;;;;;;11.30;4.85;;;17.40;67.40;;;;;;6119654;29;20420;-83
2021/04/29 10:42:06;;;;;;;6.28;3.20;;;17.40;67.60;;;;;;6110784;29;20440;-83
2021/04/29 10:45:10;;;;;;;8.02;2.30;;;17.40;67.60;;;;;;6083731;29;20035;-80
2021/04/29 10:48:11;;;;;;;10.20;2.60;;;17.50;67.70;;;;;;6081049;29;20033;-82
2021/04/29 10:51:12;;;;;;;11.90;4.50;;;17.40;67.40;;;;;;6092009;29;20059;-81
2021/04/29 10:54:16;;;;;;;15.77;7.53;;;17.50;67.50;;;;;;6114813;29;20492;-80
2021/04/29 10:57:17;;;;;;;10.93;4.53;;;17.40;67.50;;;;;;6098763;29;20047;-82
2021/04/29 11:00:19;;;;;;;18.75;8.52;;;17.50;67.60;;;;;;6132080;29;20039;-80
2021/04/29 11:03:37;;;;;;;15.57;7.55;;;17.50;67.50;;;;;;6115732;29;20028;-81
2021/04/29 11:06:39;;;;;;;10.55;4.93;;;17.50;67.40;;;;;;6116871;29;20035;-80
2021/04/29 11:09:43;;;;;;;11.88;4.68;;;17.50;67.30;;;;;;6114788;29;20336;-79
2021/04/29 11:12:51;;;;;;;9.02;1.75;;;17.50;67.30;;;;;;6136397;29;20023;-80
2021/04/29 11:16:01;;;;;;;24.55;3.05;;;17.60;67.20;;;;;;6124479;29;20054;-82
2021/04/29 11:19:02;;;;;;;5.53;2.08;;;17.70;66.90;;;;;;6134115;29;20038;-81
2021/04/29 11:22:15;;;;;;;15.88;6.90;;;17.70;66.70;;;;;;6132121;29;20040;-80
2021/04/29 11:25:19;;;;;;;11.80;3.50;;;17.80;66.60;;;;;;6117029;29;20459;-80
2021/04/29 11:28:28;;;;;;;11.75;5.47;;;17.80;66.30;;;;;;6131898;29;20151;-80
2021/04/29 11:31:38;;;;;;;16.77;6.47;;;17.90;66.20;;;;;;6114959;29;20027;-81
2021/04/29 11:34:48;;;;;;;7.68;2.78;;;17.90;66.00;;;;;;6117382;29;20042;-79
2021/04/29 11:37:51;;;;;;;9.00;1.85;;;18.00;65.70;;;;;;6138864;29;20023;-82
2021/04/29 11:40:52;;;;;;;8.10;3.22;;;17.90;65.10;;;;;;6125550;29;20467;-82
2021/04/29 11:44:06;;;;;;;26.88;4.43;;;17.90;65.00;;;;;;6139506;29;20032;-80
2021/04/29 11:47:14;;;;;;;7.25;2.00;;;17.80;65.10;;;;;;6103995;29;20062;-81
2021/04/29 11:50:27;;;;;;;47.08;5.05;;;17.90;65.20;;;;;;6114178;29;20032;-82
2021/04/29 11:53:30;;;;;;;16.75;2.42;;;17.90;65.20;;;;;;6129922;29;20420;-81
2021/04/29 11:56:43;;;;;;;11.10;2.70;;;17.90;65.20;;;;;;6131579;29;20038;-82
2021/04/29 11:59:50;;;;;;;4.28;2.20;;;17.90;65.20;;;;;;6115682;29;20419;-82
2021/04/29 12:02:58;;;;;;;22.88;3.00;;;17.80;65.20;;;;;;6115586;29;20175;-82
2021/04/29 12:06:03;;;;;;;20.42;1.88;;;17.80;65.20;;;;;;6123071;29;20039;-83
2021/04/29 12:09:11;;;;;;;27.13;2.85;;;17.80;65.40;;;;;;6103038;29;20027;-83
2021/04/29 12:12:18;;;;;;;1140.20;114.70;;;17.80;65.50;;;;;;6112862;29;20059;-81
2021/04/29 12:15:19;;;;;;;3.28;1.75;;;17.80;65.70;;;;;;6117602;29;20423;-82
2021/04/29 12:18:20;;;;;;;353.38;29.10;;;17.90;65.90;;;;;;6134058;29;20027;-81
2021/04/29 12:21:22;;;;;;;578.65;42.50;;;17.90;65.00;;;;;;6101323;29;20046;-83
2021/04/29 12:24:25;;;;;;;308.92;19.83;;;17.90;65.20;;;;;;6113215;29;20042;-81
2021/04/29 12:27:26;;;;;;;1777.82;149.45;;;17.90;66.00;;;;;;6128752;29;20114;-79
2021/04/29 12:30:28;;;;;;;412.90;30.00;;;18.00;65.00;;;;;;6113489;29;20035;-79
2021/04/29 12:33:29;;;;;;;70.70;6.20;;;18.10;64.90;;;;;;6129937;29;20024;-81
2021/04/29 12:36:32;;;;;;;152.60;10.85;;;18.20;64.90;;;;;;6112796;29;20019;-80
2021/04/29 12:39:42;;;;;;;32.85;3.38;;;18.30;64.70;;;;;;6082194;29;20179;-80
2021/04/29 12:42:43;;;;;;;415.55;33.08;;;18.30;64.40;;;;;;6113849;29;20039;-81
2021/04/29 12:45:55;;;;;;;9.20;2.08;;;18.30;63.70;;;;;;6099840;29;20023;-80
2021/04/29 12:48:57;;;;;;;7.35;1.30;;;18.40;63.70;;;;;;6114091;29;20036;-82
2021/04/29 12:52:12;;;;;;;18.45;2.92;;;18.40;63.40;;;;;;6097791;29;20046;-81
2021/04/29 12:55:15;;;;;;;57.30;5.63;;;18.50;63.20;;;;;;6109696;29;20510;-80
2021/04/29 12:58:18;;;;;;;14.10;1.85;;;18.70;62.80;;;;;;6113517;29;20110;-79
2021/04/29 13:01:22;;;;;;;43.15;2.40;;;18.90;63.10;;;;;;6131852;29;20042;-79
2021/04/29 13:04:26;;;;;;;5.72;1.30;;;19.30;61.80;;;;;;6113023;29;20031;-80
2021/04/29 13:07:29;;;;;;;33.80;3.00;;;19.80;61.10;;;;;;6111197;29;20127;-79
2021/04/29 13:10:31;;;;;;;45.38;3.45;;;20.40;59.60;;;;;;6092874;29;20040;-77
2021/04/29 13:13:32;;;;;;;88.47;5.30;;;20.90;58.50;;;;;;6095733;29;20024;-77
2021/04/29 13:16:34;;;;;;;78.53;5.20;;;21.20;57.70;;;;;;6129311;29;20099;-77
2021/04/29 13:19:35;;;;;;;4.43;1.58;;;21.50;57.20;;;;;;6110688;29;20079;-79
2021/04/29 13:22:38;;;;;;;33.45;3.70;;;21.90;56.70;;;;;;6096563;29;20035;-77
2021/04/29 13:25:39;;;;;;;69.45;5.45;;;22.70;55.00;;;;;;6111794;29;20050;-78
2021/04/29 13:28:41;;;;;;;140.88;8.98;;;23.50;52.90;;;;;;6128164;29;20367;-78
2021/04/29 13:31:42;;;;;;;110.53;7.95;;;23.90;51.60;;;;;;6121713;29;20043;-77
2021/04/29 13:34:43;;;;;;;22.15;3.15;;;24.40;50.60;;;;;;6131743;29;20528;-78
2021/04/29 13:37:44;;;;;;;38.15;3.75;;;25.10;49.10;;;;;;6113784;29;20427;-78
2021/04/29 13:40:45;;;;;;;7.45;1.45;;;25.50;48.10;;;;;;6097217;29;20040;-77
2021/04/29 13:43:46;;;;;;;13.10;2.30;;;25.40;47.50;;;;;;6114546;29;20051;-77
2021/04/29 13:46:48;;;;;;;56.15;4.40;;;25.40;47.60;;;;;;6132365;29;20086;-78
2021/04/29 13:49:49;;;;;;;35.42;3.15;;;26.10;46.90;;;;;;6113315;29;20051;-77
2021/04/29 13:52:50;;;;;;;5.13;1.70;;;26.80;45.10;;;;;;6136013;29;20027;-82
2021/04/29 13:55:51;;;;;;;18.73;1.45;;;27.70;43.20;;;;;;6113733;29;20035;-81
2021/04/29 13:58:53;;;;;;;4.25;0.95;;;27.80;42.60;;;;;;6113257;29;20169;-82
2021/04/29 14:01:54;;;;;;;7.38;1.15;;;27.60;41.90;;;;;;6129584;29;20035;-79
2021/04/29 14:04:56;;;;;;;1.55;0.98;;;27.20;41.90;;;;;;6131129;29;20039;-80
2021/04/29 14:07:58;;;;;;;2.42;0.80;;;26.70;41.80;;;;;;6143818;28;20031;-80
2021/04/29 14:10:59;;;;;;;25.92;2.15;;;26.00;42.90;;;;;;6124521;29;20035;-80
2021/04/29 14:14:00;;;;;;;205.50;12.30;;;25.70;43.40;;;;;;6132367;29;20528;-80
2021/04/29 14:17:02;;;;;;;342.92;21.20;;;26.20;43.50;;;;;;6111285;29;20036;-80
2021/04/29 14:20:03;;;;;;;18.92;1.90;;;26.40;42.60;;;;;;6124427;29;20039;-80
2021/04/29 14:23:04;;;;;;;28.48;3.22;;;26.20;42.70;;;;;;6125017;29;20036;-81
2021/04/29 14:26:05;;;;;;;14.35;4.25;;;26.10;42.30;;;;;;6136244;29;20261;-80
2021/04/29 14:29:07;;;;;;;5.43;1.92;;;25.80;42.40;;;;;;6116679;29;20371;-79
2021/04/29 14:32:08;;;;;;;5.70;2.20;;;25.30;42.80;;;;;;6134359;29;20035;-80
2021/04/29 14:35:10;;;;;;;9.05;1.30;;;25.10;43.40;;;;;;6133590;29;20051;-79
2021/04/29 14:38:12;;;;;;;7.78;1.27;;;24.90;43.70;;;;;;6118148;29;20028;-79
2021/04/29 14:41:15;;;;;;;6.38;1.50;;;24.90;43.90;;;;;;6116709;29;20107;-80
2021/04/29 14:44:27;;;;;;;3.15;1.65;;;25.00;43.40;;;;;;6131072;29;20035;-80
2021/04/29 14:47:28;;;;;;;2.65;0.90;;;25.10;42.90;;;;;;6134514;29;20042;-79
2021/04/29 14:50:29;;;;;;;18.67;2.50;;;24.80;43.20;;;;;;6133667;29;20031;-80
2021/04/29 14:53:31;;;;;;;2.80;0.90;;;24.50;43.90;;;;;;6120719;29;20375;-79
2021/04/29 14:56:32;;;;;;;3.03;0.80;;;24.40;44.30;;;;;;6132276;29;20043;-80
2021/04/29 14:59:33;;;;;;;10.68;1.50;;;24.10;44.10;;;;;;6131955;29;20375;-80
2021/04/29 15:02:36;;;;;;;67.72;4.28;;;24.00;44.70;;;;;;6114624;29;20038;-79
2021/04/29 15:05:38;;;;;;;4.28;1.20;;;23.90;44.80;;;;;;6114296;29;20024;-80
2021/04/29 15:08:39;;;;;;;12.02;1.85;;;23.90;44.10;;;;;;6113716;29;20483;-79
2021/04/29 15:11:40;;;;;;;0.98;0.70;;;23.80;44.00;;;;;;6111674;29;20051;-79
2021/04/29 15:14:44;;;;;;;2.47;0.68;;;23.90;44.00;;;;;;6114824;29;20098;-79
2021/04/29 15:17:46;;;;;;;23.00;1.85;;;23.90;43.70;;;;;;6113969;29;20039;-80
2021/04/29 15:20:48;;;;;;;15.95;0.80;;;24.00;43.70;;;;;;6130618;29;20194;-79
2021/04/29 15:23:52;;;;;;;0.77;0.75;;;24.10;42.60;;;;;;6096669;29;20036;-79
2021/04/29 15:26:53;;;;;;;8.20;1.52;;;24.10;42.00;;;;;;6113505;29;20118;-80
2021/04/29 15:29:54;;;;;;;7.30;2.08;;;24.20;42.20;;;;;;6112661;29;20040;-79
2021/04/29 15:32:55;;;;;;;6.22;1.85;;;24.10;42.20;;;;;;6130540;29;20020;-79
2021/04/29 15:35:56;;;;;;;3.17;1.67;;;24.10;42.80;;;;;;6113905;29;20036;-79
2021/04/29 15:38:57;;;;;;;15.90;2.72;;;23.90;43.20;;;;;;6113363;29;20024;-79
2021/04/29 15:42:00;;;;;;;4.25;1.70;;;23.80;43.30;;;;;;6099657;29;20040;-80
2021/04/29 15:45:01;;;;;;;6.18;3.53;;;23.60;43.50;;;;;;6130559;29;20090;-79
2021/04/29 15:48:03;;;;;;;6.80;1.85;;;23.40;44.10;;;;;;6123031;29;20034;-79
2021/04/29 15:51:06;;;;;;;1.40;1.05;;;23.20;44.50;;;;;;6105665;29;20098;-80
2021/04/29 15:54:08;;;;;;;0.88;0.50;;;23.00;44.70;;;;;;6130518;29;20052;-79